Huvudsida
METAR-TAF:

METAR-TAF

Flygplatser :

Hua Hin, Thailand

latitud: 12-35N, longitud: 099-57E, höjd: 5 m

Aktuellt väderrapport

Denna rapport gjordes för 2 timmar och 38 minuter sedan, klockan 11:00 UTC
Vind 10 kt från syd/sydost, varierande mellan sydost och sydväst
Temperatur 31°C
Fuktighet 75%
Tryck 1005 hPa
Sikt 10 km eller mer
Få moln på en höjd av 3000 ft

METAR: VTPH 241100Z 16010KT 130V220 9999 FEW030 31/26 Q1005 NOSIG

Tid: 20:38 (13:38 UTC)

Väderprognos

Denna rapport gjordes för 2 timmar och 38 minuter sedan, klockan 11:00 UTC
Prognos gäller från 24 kl. 12 UTC till 25 kl. 12 UTC
Vind 10 kt från sydost
Sikt 10 km eller mer
Få moln på en höjd av 3000 ft
Blir
från 24 kl. 15 UTC till 24 kl. 17 UTC
Vind 3 kt från sydväst
Blir
från 25 kl. 02 UTC till 25 kl. 04 UTC
Vind 15 kt från sydost

TAF: VTPH 241100Z 2412/2512 14010KT 9999 FEW030 BECMG 2415/2417 23003KT BECMG 2502/2504 14015KT

Aktuella väderrapporter och prognoser från 4000 flygplatser (METAR- och TAF-rapporter).

De tillgängliga stationerna syns som gula och röda prickar på kartan.

För musen över prickarna för att se namnen på stationerna.

Klicka sedan för att få väderrapporter och prognoser.

För att ändra kartan: Klicka på de gröna knapparna med ett svart kors på för att zooma in; den gröna knappen med ett streck på för att zooma ut; eller på de gröna pilarna för angränsande kartor.


METAR-TAF: